Time;durP1;ratioP1;P1;durP2;ratioP2;P2;SDS_P1;SDS_P2;PMS_P1;PMS_P2;Temp;Humidity;BMP_temperature;BMP_pressure;BME280_temperature;BME280_humidity;BME280_pressure;Samples;Min_cycle;Max_cycle;Signal;HPM_P1;HPM_P2
2022/10/28 00:00:23;;;;;;;5.40;1.58;;;18.10;73.50;;;;;;2539695;54;21407;-75
2022/10/28 00:02:59;;;;;;;3.90;1.55;;;18.00;73.40;;;;;;2318680;54;20935;-77
2022/10/28 00:05:26;;;;;;;4.62;1.70;;;18.10;73.40;;;;;;2284579;55;21052;-76
2022/10/28 00:07:52;;;;;;;4.90;1.55;;;18.00;73.30;;;;;;2399981;54;21607;-76
2022/10/28 00:10:19;;;;;;;6.43;1.90;;;18.00;73.40;;;;;;2294655;55;21065;-75
2022/10/28 00:12:45;;;;;;;4.68;1.70;;;18.00;73.30;;;;;;2283998;55;21069;-77
2022/10/28 00:15:11;;;;;;;3.97;1.87;;;18.00;73.40;;;;;;2431488;55;20962;-78
2022/10/28 00:17:37;;;;;;;6.93;2.10;;;18.00;73.40;;;;;;2285463;55;21051;-75
2022/10/28 00:20:04;;;;;;;3.65;1.80;;;17.90;73.40;;;;;;2295216;55;25036;-75
2022/10/28 00:22:32;;;;;;;7.68;2.10;;;17.90;74.00;;;;;;2289677;55;21407;-77
2022/10/28 00:24:58;;;;;;;4.25;1.90;;;17.90;73.30;;;;;;2543797;54;20929;-78
2022/10/28 00:27:26;;;;;;;4.78;2.00;;;17.90;73.50;;;;;;2533863;54;21199;-75
2022/10/28 00:29:57;;;;;;;3.58;1.40;;;17.90;73.40;;;;;;2285504;55;21375;-77
2022/10/28 00:32:29;;;;;;;5.50;1.55;;;17.90;73.50;;;;;;2296241;55;20951;-79
2022/10/28 00:34:56;;;;;;;4.03;1.60;;;17.90;73.40;;;;;;2300837;55;20983;-77
2022/10/28 00:37:23;;;;;;;3.28;1.40;;;17.90;73.50;;;;;;2304494;54;21791;-77
2022/10/28 00:39:49;;;;;;;3.17;1.42;;;17.90;73.50;;;;;;2289823;55;20933;-75
2022/10/28 00:42:18;;;;;;;3.97;1.40;;;17.90;73.50;;;;;;2308840;55;21024;-75
2022/10/28 00:44:55;;;;;;;3.05;1.48;;;17.80;73.30;;;;;;2301111;56;20966;-77
2022/10/28 00:49:15;;;;;;;5.05;1.62;;;17.80;72.90;;;;;;2291409;55;21091;-75
2022/10/28 00:51:42;;;;;;;3.03;1.23;;;17.80;72.20;;;;;;2310519;55;21419;-75
2022/10/28 00:54:09;;;;;;;4.30;1.35;;;17.80;73.30;;;;;;2291064;55;20979;-75
2022/10/28 00:56:40;;;;;;;3.70;1.50;;;17.70;73.30;;;;;;2294584;55;21031;-76
2022/10/28 00:59:12;;;;;;;4.27;1.60;;;17.70;73.20;;;;;;2523438;54;20971;-75
2022/10/28 01:01:40;;;;;;;4.03;1.60;;;17.70;73.30;;;;;;2288240;55;21118;-76
2022/10/28 01:04:06;;;;;;;7.85;1.77;;;17.70;73.50;;;;;;2399714;54;20957;-75
2022/10/28 01:06:33;;;;;;;6.93;1.90;;;17.70;73.70;;;;;;2296765;55;20961;-75
2022/10/28 01:08:59;;;;;;;5.43;1.60;;;17.70;73.80;;;;;;2282734;55;20925;-75
2022/10/28 01:11:58;;;;;;;5.37;1.87;;;17.60;73.70;;;;;;2367767;54;21023;-75
2022/10/28 01:14:39;;;;;;;3.15;1.20;;;17.70;73.20;;;;;;2291076;55;20936;-75
2022/10/28 01:18:51;;;;;;;3.20;1.27;;;17.60;73.30;;;;;;2301779;56;20998;-75
2022/10/28 01:22:59;;;;;;;3.55;1.27;;;17.60;73.10;;;;;;2285400;55;21037;-74
2022/10/28 01:30:39;;;;;;;4.60;1.10;;;17.60;73.30;;;;;;2299198;56;21920;-75
2022/10/28 01:33:14;;;;;;;3.10;1.20;;;17.60;72.80;;;;;;2297399;55;21002;-78
2022/10/28 01:35:48;;;;;;;3.85;1.15;;;17.60;73.80;;;;;;2449787;54;20986;-75
2022/10/28 01:38:35;;;;;;;4.60;1.13;;;17.60;73.90;;;;;;2265750;55;1859534;-75
2022/10/28 01:41:18;;;;;;;3.42;1.15;;;17.60;73.90;;;;;;2298634;55;21647;-75
2022/10/28 01:43:56;;;;;;;7.50;1.40;;;17.60;74.20;;;;;;2309419;56;20949;-75
2022/10/28 01:46:56;;;;;;;3.50;1.40;;;17.60;74.10;;;;;;2309415;56;20949;-76
2022/10/28 01:49:33;;;;;;;5.20;1.20;;;17.50;73.70;;;;;;2302917;55;21035;-76
2022/10/28 01:52:02;;;;;;;7.78;1.87;;;17.50;74.10;;;;;;2529511;54;21033;-75
2022/10/28 01:54:31;;;;;;;4.45;1.27;;;17.50;74.40;;;;;;2305477;56;20957;-75
2022/10/28 01:56:58;;;;;;;4.65;1.30;;;17.60;74.50;;;;;;2528352;54;21050;-76
2022/10/28 01:59:27;;;;;;;6.12;1.62;;;17.60;74.40;;;;;;2304171;55;21033;-75
2022/10/28 02:01:58;;;;;;;11.93;2.22;;;17.60;74.40;;;;;;2334237;54;20952;-77
2022/10/28 02:04:26;;;;;;;6.47;1.50;;;17.60;74.50;;;;;;2384603;54;21021;-76
2022/10/28 02:06:54;;;;;;;3.42;1.10;;;17.60;74.50;;;;;;2388049;54;21454;-77
2022/10/28 02:10:32;;;;;;;4.65;1.40;;;17.60;74.50;;;;;;2309202;56;21576;-76
2022/10/28 02:13:04;;;;;;;5.72;1.40;;;17.60;74.20;;;;;;2330126;54;21020;-75
2022/10/28 02:15:52;;;;;;;5.67;1.10;;;17.60;74.20;;;;;;2311683;56;20961;-77
2022/10/28 02:20:13;;;;;;;4.93;1.20;;;17.60;74.00;;;;;;2309218;56;21139;-77
2022/10/28 02:22:47;;;;;;;3.97;0.90;;;17.60;73.20;;;;;;2548887;54;20961;-75
2022/10/28 02:25:32;;;;;;;3.92;1.20;;;17.60;74.10;;;;;;2314012;54;20929;-75
2022/10/28 02:28:04;;;;;;;4.45;1.35;;;17.60;73.80;;;;;;2339238;54;20941;-75
2022/10/28 02:30:53;;;;;;;4.97;1.42;;;17.60;74.30;;;;;;2336367;54;21886;-76
2022/10/28 02:33:21;;;;;;;4.72;1.70;;;17.60;74.10;;;;;;2546776;53;21857;-77
2022/10/28 02:35:53;;;;;;;4.18;1.60;;;17.60;74.60;;;;;;2375978;54;20960;-76
2022/10/28 02:39:05;;;;;;;5.45;1.55;;;17.60;74.60;;;;;;2282256;55;20964;-78
2022/10/28 02:42:07;;;;;;;6.72;1.95;;;17.60;74.00;;;;;;2352517;55;21000;-75
2022/10/28 02:44:36;;;;;;;4.43;1.53;;;17.60;74.00;;;;;;2281595;56;21030;-76
2022/10/28 02:47:08;;;;;;;3.85;1.62;;;17.60;74.90;;;;;;2358824;55;21708;-76
2022/10/28 02:49:36;;;;;;;5.50;2.15;;;17.70;75.00;;;;;;2406348;55;21006;-76
2022/10/28 02:52:03;;;;;;;5.70;1.87;;;17.70;75.10;;;;;;2359264;55;20998;-76
2022/10/28 02:54:39;;;;;;;7.40;1.67;;;17.70;75.20;;;;;;2508642;55;21002;-78
2022/10/28 02:57:12;;;;;;;4.72;2.30;;;17.70;75.10;;;;;;2279086;56;20950;-75
2022/10/28 02:59:39;;;;;;;4.03;1.80;;;17.70;75.10;;;;;;2508566;54;21550;-77
2022/10/28 03:02:05;;;;;;;3.97;1.75;;;17.80;75.30;;;;;;2277711;56;21001;-75
2022/10/28 03:04:33;;;;;;;3.97;1.60;;;17.80;75.40;;;;;;2277185;56;20974;-78
2022/10/28 03:06:59;;;;;;;7.20;1.70;;;17.80;75.30;;;;;;2277532;56;21493;-75
2022/10/28 03:09:26;;;;;;;4.12;1.73;;;17.80;75.20;;;;;;2277863;56;21906;-76
2022/10/28 03:11:54;;;;;;;5.32;1.58;;;17.80;75.00;;;;;;2324113;55;21074;-75
2022/10/28 03:14:20;;;;;;;4.43;1.50;;;17.80;75.00;;;;;;2510059;53;21628;-76
2022/10/28 03:16:47;;;;;;;4.45;1.70;;;17.80;75.00;;;;;;2424493;54;20961;-76
2022/10/28 03:19:13;;;;;;;5.68;1.60;;;17.80;75.10;;;;;;2270945;55;21003;-76
2022/10/28 03:21:40;;;;;;;4.65;1.77;;;17.90;75.30;;;;;;2301901;54;20951;-76
2022/10/28 03:24:06;;;;;;;4.68;1.73;;;17.90;75.30;;;;;;2283405;55;21110;-77
2022/10/28 03:26:32;;;;;;;4.78;1.48;;;17.90;75.30;;;;;;2285409;55;20940;-75
2022/10/28 03:29:01;;;;;;;6.25;1.73;;;17.90;75.20;;;;;;2252108;56;21030;-76
2022/10/28 03:31:28;;;;;;;3.35;1.65;;;17.90;75.20;;;;;;2274784;55;22066;-78
2022/10/28 03:33:55;;;;;;;6.43;2.03;;;17.90;75.30;;;;;;2280363;56;21440;-75
2022/10/28 03:36:21;;;;;;;6.50;1.60;;;18.00;75.40;;;;;;2279234;56;20919;-76
2022/10/28 03:38:48;;;;;;;9.65;2.00;;;18.00;75.40;;;;;;2483313;55;21410;-76
2022/10/28 03:41:15;;;;;;;7.68;2.75;;;18.00;75.40;;;;;;2297858;55;21646;-78
2022/10/28 03:43:42;;;;;;;9.02;1.60;;;18.00;75.40;;;;;;2279883;56;21217;-76
2022/10/28 03:46:08;;;;;;;5.50;1.65;;;18.00;75.30;;;;;;2335353;54;20953;-75
2022/10/28 03:48:35;;;;;;;4.15;1.67;;;18.00;75.30;;;;;;2306134;56;21018;-76
2022/10/28 03:51:03;;;;;;;12.23;1.80;;;18.10;75.30;;;;;;2279796;55;21031;-75
2022/10/28 03:53:29;;;;;;;5.85;1.80;;;18.10;75.30;;;;;;2284054;56;21427;-76
2022/10/28 03:55:58;;;;;;;5.57;1.55;;;18.10;75.20;;;;;;2304856;56;20953;-78
2022/10/28 03:58:25;;;;;;;4.05;1.37;;;18.10;75.20;;;;;;2306060;56;20953;-76
2022/10/28 04:00:51;;;;;;;4.12;1.58;;;18.10;75.10;;;;;;2529050;54;20945;-76
2022/10/28 04:03:18;;;;;;;5.03;1.85;;;18.10;75.10;;;;;;2298389;55;20937;-75
2022/10/28 04:05:47;;;;;;;5.72;1.98;;;18.10;75.10;;;;;;2465354;53;21885;-76
2022/10/28 04:08:17;;;;;;;6.80;2.03;;;18.20;75.20;;;;;;2317468;54;21048;-75
2022/10/28 04:10:44;;;;;;;3.72;1.65;;;18.20;75.30;;;;;;2310031;54;21017;-76
2022/10/28 04:13:13;;;;;;;4.80;1.60;;;18.20;75.20;;;;;;2305065;56;20973;-76
2022/10/28 04:15:39;;;;;;;5.43;1.45;;;18.20;75.20;;;;;;2306028;56;20997;-75
2022/10/28 04:18:05;;;;;;;2.95;1.48;;;18.20;75.20;;;;;;2304854;56;21305;-80
2022/10/28 04:20:32;;;;;;;3.90;1.40;;;18.30;75.20;;;;;;2305858;56;20953;-76
2022/10/28 04:22:58;;;;;;;3.87;1.67;;;18.20;75.00;;;;;;2305033;56;20965;-76
2022/10/28 04:25:25;;;;;;;4.60;1.48;;;18.20;74.90;;;;;;2375300;54;21192;-76
2022/10/28 04:27:52;;;;;;;11.55;1.98;;;18.20;74.90;;;;;;2304617;56;20938;-75
2022/10/28 04:30:21;;;;;;;4.40;1.45;;;18.20;75.00;;;;;;2303825;56;20961;-76
2022/10/28 04:32:47;;;;;;;3.72;1.60;;;18.20;75.00;;;;;;2304170;56;20966;-79
2022/10/28 04:35:14;;;;;;;5.22;1.87;;;18.20;74.90;;;;;;2520760;54;20991;-76
2022/10/28 04:37:40;;;;;;;8.68;2.75;;;18.20;74.70;;;;;;2283978;55;22016;-76
2022/10/28 04:40:08;;;;;;;5.47;1.50;;;18.20;74.80;;;;;;2342119;54;21011;-75
2022/10/28 04:42:35;;;;;;;3.17;1.48;;;18.20;74.70;;;;;;2304703;56;21999;-76
2022/10/28 04:45:01;;;;;;;4.50;1.33;;;18.20;74.80;;;;;;2302563;56;20969;-76
2022/10/28 04:47:28;;;;;;;4.45;1.15;;;18.20;74.80;;;;;;2305133;56;21100;-76
2022/10/28 04:50:12;;;;;;;3.92;1.35;;;18.20;74.70;;;;;;2304489;56;20958;-75
2022/10/28 04:52:38;;;;;;;3.08;1.35;;;18.20;74.20;;;;;;2303307;55;20973;-77
2022/10/28 04:55:07;;;;;;;6.62;1.73;;;18.20;74.90;;;;;;2348846;53;20961;-76
2022/10/28 04:57:33;;;;;;;3.65;1.50;;;18.20;74.90;;;;;;2302055;55;20989;-75
2022/10/28 05:00:00;;;;;;;4.90;1.73;;;18.20;74.90;;;;;;2468897;54;20976;-75
2022/10/28 05:02:28;;;;;;;2.72;1.17;;;18.20;74.90;;;;;;2330872;54;20994;-76
2022/10/28 05:04:59;;;;;;;4.18;1.40;;;18.20;75.00;;;;;;2332755;54;21531;-78
2022/10/28 05:07:26;;;;;;;5.72;1.65;;;18.20;75.00;;;;;;2303958;55;20952;-76
2022/10/28 05:09:54;;;;;;;5.15;1.85;;;18.20;75.00;;;;;;2338961;54;21513;-76
2022/10/28 05:12:20;;;;;;;5.03;1.55;;;18.20;75.00;;;;;;2297898;55;20946;-75
2022/10/28 05:14:47;;;;;;;4.47;1.73;;;18.20;75.00;;;;;;2380455;55;21000;-76
2022/10/28 05:17:14;;;;;;;4.70;1.50;;;18.20;75.00;;;;;;2292211;55;21657;-75
2022/10/28 05:19:44;;;;;;;2.90;1.50;;;18.20;74.90;;;;;;2302125;55;20957;-75
2022/10/28 05:22:10;;;;;;;6.80;1.48;;;18.20;74.90;;;;;;2302820;56;20994;-75
2022/10/28 05:24:36;;;;;;;5.05;1.35;;;18.20;74.90;;;;;;2305651;56;21057;-75
2022/10/28 05:27:03;;;;;;;5.45;1.87;;;18.20;74.90;;;;;;2289647;55;20998;-76
2022/10/28 05:29:31;;;;;;;3.87;1.45;;;18.20;75.00;;;;;;2316580;55;20980;-75
2022/10/28 05:31:59;;;;;;;4.45;1.67;;;18.20;75.00;;;;;;2338609;54;20989;-76
2022/10/28 05:34:25;;;;;;;7.50;2.28;;;18.20;75.00;;;;;;2283677;55;20957;-78
2022/10/28 05:36:52;;;;;;;3.60;1.60;;;18.20;75.00;;;;;;2539952;53;20949;-76
2022/10/28 05:39:18;;;;;;;5.72;1.67;;;18.20;75.10;;;;;;2292082;54;20934;-75
2022/10/28 05:41:45;;;;;;;4.22;1.55;;;18.20;75.10;;;;;;2302622;55;21636;-78
2022/10/28 05:44:12;;;;;;;4.72;1.58;;;18.20;75.10;;;;;;2285453;55;21001;-79
2022/10/28 05:46:41;;;;;;;4.43;1.90;;;18.20;75.10;;;;;;2327237;54;21843;-78
2022/10/28 05:49:08;;;;;;;3.28;1.25;;;18.20;75.10;;;;;;2415931;55;21910;-75
2022/10/28 05:51:34;;;;;;;4.32;1.35;;;18.20;75.00;;;;;;2303328;56;20941;-76
2022/10/28 05:54:00;;;;;;;4.47;1.50;;;18.20;75.00;;;;;;2490540;54;20993;-77
2022/10/28 05:56:27;;;;;;;4.95;1.67;;;18.30;75.10;;;;;;2302800;56;20945;-75
2022/10/28 05:58:53;;;;;;;4.43;1.52;;;18.20;75.00;;;;;;2497810;54;20988;-76
2022/10/28 06:01:19;;;;;;;4.40;1.48;;;18.30;75.00;;;;;;2299897;55;21005;-76
2022/10/28 06:03:46;;;;;;;3.75;1.58;;;18.30;75.00;;;;;;2293448;55;21017;-76
2022/10/28 06:06:12;;;;;;;4.45;1.70;;;18.30;74.90;;;;;;2424800;54;20941;-75
2022/10/28 06:08:39;;;;;;;4.57;1.52;;;18.30;74.80;;;;;;2499784;54;21510;-75
2022/10/28 06:11:05;;;;;;;9.45;1.50;;;18.30;74.80;;;;;;2300843;55;20965;-80
2022/10/28 06:13:32;;;;;;;6.62;1.77;;;18.30;75.00;;;;;;2299348;56;20985;-77
2022/10/28 06:15:58;;;;;;;4.28;1.98;;;18.30;75.00;;;;;;2298960;56;21489;-75
2022/10/28 06:18:24;;;;;;;4.62;1.77;;;18.30;75.70;;;;;;2300856;56;21005;-76
2022/10/28 06:20:55;;;;;;;4.72;1.73;;;18.30;75.10;;;;;;2301593;55;20945;-76
2022/10/28 06:23:25;;;;;;;6.62;1.60;;;18.30;74.90;;;;;;2401135;55;20962;-76
2022/10/28 06:25:58;;;;;;;4.15;1.60;;;18.30;75.00;;;;;;2296862;56;20939;-76
2022/10/28 06:28:28;;;;;;;4.57;1.65;;;18.30;74.80;;;;;;2309239;55;21016;-76
2022/10/28 06:30:59;;;;;;;6.70;1.70;;;18.30;74.80;;;;;;2483546;54;20965;-76
2022/10/28 06:33:26;;;;;;;5.72;1.92;;;18.30;74.90;;;;;;2303229;55;21567;-78
2022/10/28 06:35:59;;;;;;;6.82;2.00;;;18.30;74.90;;;;;;2475002;54;21044;-76
2022/10/28 06:38:26;;;;;;;4.47;1.95;;;18.30;74.90;;;;;;2468172;54;20941;-76
2022/10/28 06:40:52;;;;;;;7.75;1.90;;;18.30;75.00;;;;;;2299560;56;20981;-76
2022/10/28 06:43:20;;;;;;;5.68;2.50;;;18.30;75.00;;;;;;2298227;55;20974;-76
2022/10/28 06:45:47;;;;;;;6.30;1.98;;;18.30;75.00;;;;;;2284265;55;21022;-76
2022/10/28 06:48:14;;;;;;;3.35;1.40;;;18.30;75.00;;;;;;2486001;54;20949;-76
2022/10/28 06:50:40;;;;;;;4.55;1.70;;;18.30;75.00;;;;;;2390108;54;21486;-76
2022/10/28 06:53:08;;;;;;;4.32;1.92;;;18.40;75.20;;;;;;2531810;54;22143;-76
2022/10/28 06:55:34;;;;;;;6.07;1.83;;;18.40;75.20;;;;;;2503876;54;20997;-76
2022/10/28 06:58:01;;;;;;;4.40;1.83;;;18.40;75.20;;;;;;2299591;56;21114;-79
2022/10/28 07:00:28;;;;;;;6.97;2.10;;;18.40;75.20;;;;;;2298756;55;21032;-76
2022/10/28 07:03:07;;;;;;;4.35;2.33;;;18.40;75.20;;;;;;2299783;56;20977;-75
2022/10/28 07:05:33;;;;;;;4.35;1.92;;;18.40;75.30;;;;;;2281191;55;21002;-76
2022/10/28 07:07:59;;;;;;;5.05;1.73;;;18.40;75.30;;;;;;2374983;54;20965;-76
2022/10/28 07:10:29;;;;;;;4.00;1.60;;;18.50;75.40;;;;;;2302597;56;21032;-75
2022/10/28 07:12:57;;;;;;;6.15;1.75;;;18.50;75.30;;;;;;2302631;56;20984;-76
2022/10/28 07:15:24;;;;;;;4.65;2.00;;;18.50;75.50;;;;;;2307095;54;20969;-77
2022/10/28 07:17:54;;;;;;;6.87;2.00;;;18.50;75.60;;;;;;2394649;54;21004;-77
2022/10/28 07:20:21;;;;;;;4.43;1.70;;;18.60;75.60;;;;;;2304396;55;21048;-76
2022/10/28 07:22:47;;;;;;;3.62;1.75;;;18.50;75.60;;;;;;2298964;55;21085;-76
2022/10/28 07:25:13;;;;;;;6.82;1.67;;;18.60;75.70;;;;;;2344934;55;20996;-78
2022/10/28 07:27:41;;;;;;;3.87;1.80;;;18.60;75.70;;;;;;2304681;55;20985;-75
2022/10/28 07:30:08;;;;;;;7.75;2.10;;;18.60;75.60;;;;;;2307690;56;20993;-79
2022/10/28 07:32:35;;;;;;;3.50;1.92;;;18.60;75.70;;;;;;2340918;54;21793;-75
2022/10/28 07:35:01;;;;;;;3.90;2.00;;;18.60;75.70;;;;;;2308908;55;20960;-76
2022/10/28 07:37:27;;;;;;;5.53;1.83;;;18.70;75.90;;;;;;2305049;56;20921;-77
2022/10/28 07:39:54;;;;;;;5.50;1.55;;;18.70;75.90;;;;;;2472006;54;21043;-76
2022/10/28 07:42:20;;;;;;;3.00;1.33;;;18.70;76.00;;;;;;2285155;55;20943;-76
2022/10/28 07:44:46;;;;;;;4.65;1.77;;;18.80;76.20;;;;;;2406450;55;20941;-76
2022/10/28 07:47:13;;;;;;;3.58;1.52;;;18.80;76.10;;;;;;2337693;54;20974;-76
2022/10/28 07:49:39;;;;;;;4.78;1.77;;;18.80;76.10;;;;;;2433432;54;20949;-76
2022/10/28 07:52:06;;;;;;;3.20;1.52;;;18.90;76.20;;;;;;2299603;55;21890;-76
2022/10/28 07:54:33;;;;;;;5.43;2.20;;;18.90;76.20;;;;;;2412242;53;21009;-76
2022/10/28 07:57:01;;;;;;;4.10;1.77;;;18.90;76.30;;;;;;2298191;55;21001;-76
2022/10/28 07:59:27;;;;;;;4.07;1.73;;;19.00;76.40;;;;;;2300765;56;21060;-79
2022/10/28 08:01:55;;;;;;;4.37;1.83;;;19.00;76.40;;;;;;2299702;55;21626;-77
2022/10/28 08:04:21;;;;;;;5.45;2.17;;;19.10;76.50;;;;;;2299495;55;20937;-77
2022/10/28 08:06:47;;;;;;;3.37;1.48;;;19.10;76.50;;;;;;2300485;55;21057;-78
2022/10/28 08:09:15;;;;;;;4.22;2.10;;;19.20;76.70;;;;;;2322720;54;20997;-78
2022/10/28 08:11:41;;;;;;;7.75;1.55;;;19.20;76.70;;;;;;2302360;55;21041;-76
2022/10/28 08:14:08;;;;;;;4.28;1.60;;;19.30;76.80;;;;;;2304102;55;21855;-76
2022/10/28 08:16:34;;;;;;;7.32;2.17;;;19.30;76.80;;;;;;2304412;55;20997;-76
2022/10/28 08:19:01;;;;;;;4.22;1.62;;;19.40;76.90;;;;;;2305337;56;21359;-78
2022/10/28 08:21:29;;;;;;;4.10;1.73;;;19.40;76.80;;;;;;2307596;55;20931;-77
2022/10/28 08:23:56;;;;;;;3.80;1.62;;;19.50;77.00;;;;;;2435145;54;20958;-76
2022/10/28 08:26:22;;;;;;;6.68;2.00;;;19.50;77.00;;;;;;2414045;53;21003;-76
2022/10/28 08:28:49;;;;;;;5.00;1.67;;;19.60;77.00;;;;;;2308120;55;21008;-78
2022/10/28 08:31:16;;;;;;;4.12;1.77;;;19.60;77.00;;;;;;2308074;56;21001;-76
2022/10/28 08:33:44;;;;;;;5.57;2.00;;;19.70;77.10;;;;;;2307569;56;21008;-77
2022/10/28 08:36:14;;;;;;;4.60;1.73;;;19.80;77.20;;;;;;2344520;54;20941;-76
2022/10/28 08:38:45;;;;;;;5.62;2.20;;;19.80;77.00;;;;;;2307394;56;21794;-77
2022/10/28 08:41:27;;;;;;;4.55;2.00;;;19.90;77.00;;;;;;2305571;56;20937;-77
2022/10/28 08:50:46;;;;;;;5.63;1.80;;;19.90;76.50;;;;;;2302080;54;21419;-77
2022/10/28 08:53:27;;;;;;;2.72;1.10;;;20.20;75.90;;;;;;2298365;56;20972;-76
2022/10/28 08:55:55;;;;;;;6.25;1.75;;;20.20;76.70;;;;;;2297652;56;21684;-76
2022/10/28 08:58:24;;;;;;;5.32;1.92;;;20.20;76.70;;;;;;2297812;55;21045;-77
2022/10/28 09:00:52;;;;;;;6.07;1.90;;;20.30;76.80;;;;;;2530267;54;21076;-77
2022/10/28 09:04:01;;;;;;;5.97;1.95;;;20.30;76.80;;;;;;2298943;55;22427;-79
2022/10/28 09:06:33;;;;;;;4.93;2.00;;;20.40;75.50;;;;;;2296810;55;21020;-77
2022/10/28 09:09:00;;;;;;;3.97;1.62;;;20.40;76.30;;;;;;2432200;54;21513;-76
2022/10/28 09:11:48;;;;;;;5.43;1.58;;;20.40;76.60;;;;;;2326662;54;20993;-76
2022/10/28 09:14:35;;;;;;;3.37;1.50;;;20.50;75.70;;;;;;2297448;55;20985;-79
2022/10/28 09:17:10;;;;;;;6.75;1.92;;;20.60;76.20;;;;;;2303851;56;20992;-79
2022/10/28 09:19:52;;;;;;;6.43;2.10;;;20.60;76.30;;;;;;2302952;56;20957;-76
2022/10/28 09:22:35;;;;;;;5.10;1.80;;;20.60;76.10;;;;;;2364631;54;20963;-81
2022/10/28 09:25:11;;;;;;;6.00;1.90;;;20.70;76.00;;;;;;2423657;54;21118;-79
2022/10/28 09:28:38;;;;;;;4.65;1.58;;;20.70;76.30;;;;;;2314894;54;20950;-76
2022/10/28 09:32:16;;;;;;;4.05;1.40;;;20.80;75.70;;;;;;2272586;55;22442;-77
2022/10/28 09:34:59;;;;;;;4.78;1.80;;;20.90;75.80;;;;;;2320587;54;22516;-79
2022/10/28 09:37:36;;;;;;;11.63;1.90;;;21.00;76.40;;;;;;2416531;54;21525;-76
2022/10/28 09:40:26;;;;;;;10.07;2.12;;;21.00;76.30;;;;;;2298481;55;20989;-76
2022/10/28 09:43:07;;;;;;;5.57;1.58;;;21.10;76.20;;;;;;2272591;54;21012;-79
2022/10/28 09:45:36;;;;;;;4.78;1.80;;;21.20;76.40;;;;;;2294362;56;20996;-78
2022/10/28 09:48:23;;;;;;;2.83;1.62;;;21.20;77.00;;;;;;2351448;54;20992;-78
2022/10/28 09:50:50;;;;;;;3.80;1.65;;;21.30;76.80;;;;;;2304014;56;20984;-76
2022/10/28 09:53:43;;;;;;;4.30;1.77;;;21.30;77.00;;;;;;2311399;54;21012;-78
2022/10/28 09:56:12;;;;;;;5.05;1.70;;;21.40;76.60;;;;;;2300573;56;20980;-76
2022/10/28 09:58:40;;;;;;;5.12;2.12;;;21.50;77.10;;;;;;2399495;54;21010;-76
2022/10/28 10:01:06;;;;;;;4.10;1.60;;;21.50;77.10;;;;;;2291061;55;21302;-75
2022/10/28 10:03:33;;;;;;;6.43;2.17;;;21.60;77.20;;;;;;2281569;55;21669;-79
2022/10/28 10:06:05;;;;;;;6.05;2.00;;;21.60;77.10;;;;;;2291409;55;21582;-76
2022/10/28 10:08:35;;;;;;;6.87;1.90;;;21.70;76.80;;;;;;2294995;55;20996;-76
2022/10/28 10:11:04;;;;;;;6.40;1.87;;;21.80;77.10;;;;;;2303541;56;21104;-76
2022/10/28 10:13:35;;;;;;;3.35;1.52;;;21.90;77.20;;;;;;2301214;55;21678;-77
2022/10/28 10:16:05;;;;;;;6.22;1.95;;;22.00;77.10;;;;;;2282256;55;21567;-77
2022/10/28 10:18:34;;;;;;;6.60;2.08;;;22.00;77.10;;;;;;2299931;56;20949;-77
2022/10/28 10:21:00;;;;;;;6.03;2.40;;;22.10;77.10;;;;;;2385896;54;21029;-77
2022/10/28 10:23:31;;;;;;;5.03;2.17;;;22.20;76.90;;;;;;2300699;56;21156;-77
2022/10/28 10:26:08;;;;;;;5.97;2.05;;;22.30;76.90;;;;;;2279187;55;21430;-76
2022/10/28 10:28:37;;;;;;;4.03;1.95;;;22.30;76.80;;;;;;2294220;56;20957;-78
2022/10/28 10:31:05;;;;;;;5.40;1.90;;;22.40;76.90;;;;;;2293830;55;21442;-77
2022/10/28 10:33:35;;;;;;;5.62;2.00;;;22.40;76.80;;;;;;2295640;56;20961;-76
2022/10/28 10:36:12;;;;;;;5.40;2.28;;;22.50;76.50;;;;;;2290992;56;21025;-76
2022/10/28 10:38:49;;;;;;;8.55;2.10;;;22.50;76.00;;;;;;2274632;55;20942;-76
2022/10/28 10:41:35;;;;;;;5.30;1.95;;;22.60;76.30;;;;;;2285450;55;20933;-80
2022/10/28 10:44:29;;;;;;;4.90;1.70;;;22.70;76.10;;;;;;2369530;54;21004;-77
2022/10/28 10:47:28;;;;;;;6.78;1.90;;;22.70;75.60;;;;;;2297413;55;21005;-77
2022/10/28 10:50:18;;;;;;;4.10;2.03;;;22.80;76.20;;;;;;2389128;54;20993;-76
2022/10/28 10:52:51;;;;;;;6.03;2.00;;;22.90;75.90;;;;;;2296121;56;21007;-77
2022/10/28 10:55:37;;;;;;;6.22;1.98;;;22.90;76.70;;;;;;2353656;54;20960;-76
2022/10/28 10:58:04;;;;;;;6.07;2.03;;;23.00;76.00;;;;;;2377676;54;20966;-77
2022/10/28 11:00:44;;;;;;;6.32;1.98;;;23.10;77.20;;;;;;2275752;55;20957;-77
2022/10/28 11:04:00;;;;;;;7.25;1.90;;;23.10;76.10;;;;;;2412986;54;20969;-77
2022/10/28 11:06:37;;;;;;;5.00;2.33;;;23.20;76.70;;;;;;2431941;53;21490;-79
2022/10/28 11:09:14;;;;;;;8.10;2.10;;;23.30;77.30;;;;;;2291544;55;20945;-76
2022/10/28 11:11:41;;;;;;;6.53;2.22;;;23.40;77.50;;;;;;2304796;54;21006;-77
2022/10/28 11:14:23;;;;;;;5.65;2.35;;;23.40;77.60;;;;;;2271981;55;21737;-80
2022/10/28 11:16:57;;;;;;;8.65;2.45;;;23.60;76.80;;;;;;2291850;54;21527;-77
2022/10/28 11:19:28;;;;;;;4.00;1.80;;;23.60;77.00;;;;;;2376844;54;21038;-79
2022/10/28 11:22:28;;;;;;;5.22;2.25;;;23.70;77.40;;;;;;2380948;54;20973;-77
2022/10/28 11:28:32;;;;;;;4.60;1.80;;;23.80;76.90;;;;;;2281730;56;21869;-77
2022/10/28 11:33:08;;;;;;;6.43;1.98;;;23.90;77.60;;;;;;2273389;56;21004;-76
2022/10/28 11:36:10;;;;;;;4.18;2.10;;;24.20;76.60;;;;;;2267956;55;22041;-77
2022/10/28 11:40:26;;;;;;;5.30;1.92;;;24.30;76.60;;;;;;2253523;55;21010;-77
2022/10/28 11:43:15;;;;;;;3.62;1.50;;;24.40;76.00;;;;;;2380478;54;20965;-79
2022/10/28 11:51:33;;;;;;;6.10;1.90;;;24.60;76.40;;;;;;2287016;56;20949;-77
2022/10/28 11:57:43;;;;;;;2.90;1.40;;;24.80;76.40;;;;;;2285114;54;21881;-77
2022/10/28 12:00:59;;;;;;;4.18;1.40;;;24.90;75.80;;;;;;2291623;56;21000;-77
2022/10/28 12:04:21;;;;;;;4.37;1.50;;;24.90;75.40;;;;;;2455588;54;21505;-78
2022/10/28 12:07:16;;;;;;;4.22;1.70;;;25.00;75.70;;;;;;2235716;55;21026;-76
2022/10/28 12:10:16;;;;;;;4.85;1.42;;;25.00;74.80;;;;;;2303008;55;21021;-77
2022/10/28 12:19:33;;;;;;;5.43;1.70;;;25.00;74.90;;;;;;2213237;55;20956;-77
2022/10/28 12:25:32;;;;;;;2.83;1.10;;;25.20;75.10;;;;;;2143088;55;20960;-77
2022/10/28 12:28:04;;;;;;;5.90;1.77;;;25.30;75.10;;;;;;2112298;55;21541;-80
2022/10/28 12:30:32;;;;;;;6.93;2.53;;;25.20;76.40;;;;;;2133572;55;20946;-77
2022/10/28 12:33:43;;;;;;;4.72;2.25;;;25.30;76.40;;;;;;2221174;54;21029;-75
2022/10/28 12:36:23;;;;;;;5.32;2.28;;;25.30;76.20;;;;;;2153514;55;20986;-77
2022/10/28 12:39:00;;;;;;;5.80;2.22;;;25.40;75.60;;;;;;2116204;56;21938;-77
2022/10/28 12:41:56;;;;;;;4.50;2.20;;;25.40;75.40;;;;;;2063003;56;22133;-78
2022/10/28 12:44:23;;;;;;;4.10;1.73;;;25.50;75.10;;;;;;2084362;55;23014;-78
2022/10/28 12:48:04;;;;;;;5.87;1.87;;;25.50;76.50;;;;;;2117199;55;21650;-77
2022/10/28 12:51:05;;;;;;;6.60;1.77;;;25.60;75.30;;;;;;1912703;56;20950;-77
2022/10/28 12:54:01;;;;;;;5.07;1.60;;;25.70;75.90;;;;;;1883531;56;22548;-77
2022/10/28 12:56:35;;;;;;;4.40;1.87;;;25.80;74.80;;;;;;1860307;54;23164;-78
2022/10/28 12:59:19;;;;;;;5.32;1.80;;;25.80;75.90;;;;;;2000592;55;22790;-77
2022/10/28 13:01:46;;;;;;;4.53;1.45;;;26.00;75.00;;;;;;1873887;55;22641;-77
2022/10/28 13:04:16;;;;;;;5.18;1.80;;;26.00;76.00;;;;;;1876078;56;22464;-77
2022/10/28 13:09:38;;;;;;;4.57;1.62;;;26.10;75.40;;;;;;1928554;53;21702;-78
2022/10/28 13:14:16;;;;;;;5.57;1.70;;;26.30;74.10;;;;;;1966871;56;22196;-77
2022/10/28 13:17:19;;;;;;;5.20;1.40;;;26.40;74.10;;;;;;2025479;56;23156;-77
2022/10/28 13:20:00;;;;;;;5.15;1.90;;;26.50;73.70;;;;;;2024463;55;21001;-77
2022/10/28 13:23:36;;;;;;;5.45;1.50;;;26.60;74.00;;;;;;2029719;56;23146;-77
2022/10/28 13:27:02;;;;;;;4.95;1.45;;;26.60;74.00;;;;;;2023107;55;21591;-76
2022/10/28 13:29:30;;;;;;;4.32;1.52;;;26.70;72.70;;;;;;1900311;55;23037;-77
2022/10/28 13:31:56;;;;;;;3.72;1.62;;;26.80;74.60;;;;;;1947959;55;23101;-77
2022/10/28 13:35:21;;;;;;;5.25;1.70;;;26.80;74.30;;;;;;1915049;55;23358;-76
2022/10/28 13:37:51;;;;;;;3.78;1.60;;;26.90;72.40;;;;;;1994860;54;20942;-76
2022/10/28 13:42:00;;;;;;;5.82;1.75;;;27.00;74.40;;;;;;2035043;55;22549;-76
2022/10/28 13:44:28;;;;;;;8.05;1.40;;;27.10;72.80;;;;;;2003986;56;23257;-76
2022/10/28 13:47:34;;;;;;;3.78;1.50;;;27.10;74.50;;;;;;2065179;56;20957;-77
2022/10/28 13:50:36;;;;;;;4.22;1.80;;;27.20;72.70;;;;;;2341188;53;21794;-77
2022/10/28 13:59:58;;;;;;;4.75;1.90;;;27.30;72.30;;;;;;2319847;54;20957;-76
2022/10/28 14:02:37;;;;;;;4.03;1.10;;;27.40;72.90;;;;;;2377843;53;20969;-76
2022/10/28 14:05:11;;;;;;;3.53;1.45;;;27.40;72.90;;;;;;2163756;55;21024;-77
2022/10/28 14:07:58;;;;;;;5.70;1.98;;;27.40;74.20;;;;;;2192507;54;22427;-77
2022/10/28 14:10:31;;;;;;;5.68;1.62;;;27.40;74.20;;;;;;2169403;56;20941;-79
2022/10/28 14:13:00;;;;;;;3.83;1.90;;;27.40;74.30;;;;;;2175598;56;22856;-76
2022/10/28 14:15:33;;;;;;;4.53;2.00;;;27.50;74.20;;;;;;2160588;55;22225;-77
2022/10/28 14:18:02;;;;;;;3.95;1.58;;;27.50;73.50;;;;;;2106574;55;22359;-76